Terminal Aerodrome Forecast
Issued by NWS Indianapolis, IN

Home | Current Version | Previous Version | Text Only | Print | Product List | Glossary On
Versions: 1 2 3 4 5 6 7 8 9 10 11 12 13 14 15 16 17 18 19 20 21 22 23 24 25 26 27 28 29 30
000
FTUS43 KIND 242010 AAA
TAFIND
TAF AMD
KIND 242010Z 2420/2524 22010KT P6SM SCT040
     FM250200 23005KT P6SM VCTS BKN040CB
     FM250800 24004KT P6SM BKN040 PROB30 2508/2512 5SM -TSRA
      BKN030CB
     FM251800 30006KT P6SM SCT250=

USA.gov is the U.S. government's official web portal to all federal, state and local government web resources and services.